Time;durP1;ratioP1;P1;durP2;ratioP2;P2;SDS_P1;SDS_P2;PMS_P1;PMS_P2;Temp;Humidity;BMP_temperature;BMP_pressure;BME280_temperature;BME280_humidity;BME280_pressure;Samples;Min_cycle;Max_cycle;Signal;HPM_P1;HPM_P2
2022/04/15 00:00:06;;;;;;;3.65;1.55;;;11.90;80.40;;;;;;5068641;28;20068;-68
2022/04/15 00:02:40;;;;;;;3.10;1.40;;;11.90;80.50;;;;;;5069905;28;20047;-69
2022/04/15 00:05:29;;;;;;;3.22;1.45;;;11.80;80.50;;;;;;5068965;28;20122;-68
2022/04/15 00:07:56;;;;;;;3.75;1.10;;;11.80;80.40;;;;;;5070503;28;20040;-70
2022/04/15 00:10:23;;;;;;;4.22;1.83;;;11.80;80.40;;;;;;5069302;28;20056;-69
2022/04/15 00:12:50;;;;;;;5.13;1.63;;;11.70;80.40;;;;;;5068705;28;20082;-70
2022/04/15 00:15:17;;;;;;;2.15;1.13;;;11.70;80.50;;;;;;5071156;28;20063;-69
2022/04/15 00:17:46;;;;;;;3.38;1.88;;;11.70;80.40;;;;;;5070229;28;20098;-69
2022/04/15 00:20:13;;;;;;;4.00;1.27;;;11.70;80.20;;;;;;5069009;28;20124;-69
2022/04/15 00:22:41;;;;;;;4.13;1.38;;;11.70;80.30;;;;;;5067160;28;20056;-68
2022/04/15 00:25:10;;;;;;;2.50;1.10;;;11.60;80.40;;;;;;5070126;28;20080;-69
2022/04/15 00:27:37;;;;;;;3.55;1.45;;;11.60;80.30;;;;;;5068461;28;20049;-69
2022/04/15 00:30:06;;;;;;;3.53;1.38;;;11.60;80.20;;;;;;5069651;28;20132;-69
2022/04/15 00:32:33;;;;;;;3.42;1.40;;;11.60;80.20;;;;;;5067604;28;20071;-70
2022/04/15 00:35:02;;;;;;;4.28;1.40;;;11.50;80.30;;;;;;5068380;28;20423;-68
2022/04/15 00:37:31;;;;;;;2.50;1.30;;;11.50;80.30;;;;;;5067785;28;20064;-70
2022/04/15 00:39:58;;;;;;;2.28;1.00;;;11.50;80.20;;;;;;5068967;28;20470;-69
2022/04/15 00:42:26;;;;;;;2.22;1.30;;;11.40;80.20;;;;;;5066783;28;20041;-69
2022/04/15 00:44:54;;;;;;;3.53;1.10;;;11.40;80.20;;;;;;5067672;28;20052;-70
2022/04/15 00:47:26;;;;;;;2.63;1.20;;;11.40;80.10;;;;;;5066685;28;20060;-69
2022/04/15 00:49:53;;;;;;;2.65;0.75;;;11.40;80.10;;;;;;5067420;28;20526;-70
2022/04/15 00:52:22;;;;;;;3.00;1.40;;;11.30;80.10;;;;;;5068218;28;20049;-69
2022/04/15 00:54:53;;;;;;;1.77;0.82;;;11.30;80.00;;;;;;5068026;28;20044;-70
2022/04/15 00:57:25;;;;;;;2.33;0.85;;;11.30;80.00;;;;;;5066954;28;20072;-68
2022/04/15 00:59:55;;;;;;;2.67;1.02;;;11.20;80.00;;;;;;5067903;28;20474;-70
2022/04/15 01:02:25;;;;;;;4.87;1.10;;;11.20;80.00;;;;;;5062922;28;20044;-70
2022/04/15 01:04:53;;;;;;;4.82;1.30;;;11.20;79.90;;;;;;5068081;28;20455;-70
2022/04/15 01:07:26;;;;;;;2.47;0.90;;;11.20;79.80;;;;;;5067671;28;20049;-69
2022/04/15 01:09:54;;;;;;;2.05;0.90;;;11.10;79.80;;;;;;5067341;28;20564;-71
2022/04/15 01:12:22;;;;;;;2.22;1.17;;;11.10;79.80;;;;;;5069008;28;20043;-69
2022/04/15 01:14:50;;;;;;;1.70;1.00;;;11.10;79.80;;;;;;5068453;28;20045;-69
2022/04/15 01:17:17;;;;;;;2.30;1.17;;;11.10;79.90;;;;;;5066873;28;20117;-69
2022/04/15 01:19:44;;;;;;;2.28;0.95;;;11.10;80.00;;;;;;5068169;28;20052;-70
2022/04/15 01:22:15;;;;;;;3.97;0.85;;;11.10;80.10;;;;;;5061150;28;20079;-68
2022/04/15 01:24:44;;;;;;;3.60;1.17;;;11.10;80.20;;;;;;5062479;28;20029;-68
2022/04/15 01:27:11;;;;;;;1.65;0.88;;;11.10;80.30;;;;;;5053960;28;20175;-67
2022/04/15 01:29:38;;;;;;;2.50;1.02;;;11.10;80.30;;;;;;5056391;28;20402;-68
2022/04/15 01:32:06;;;;;;;2.30;1.02;;;11.00;80.40;;;;;;5057418;28;20063;-69
2022/04/15 01:34:33;;;;;;;2.25;1.00;;;11.00;80.20;;;;;;5056854;28;20069;-70
2022/04/15 01:37:01;;;;;;;3.60;1.13;;;11.00;80.20;;;;;;5060248;28;20045;-69
2022/04/15 01:39:29;;;;;;;4.15;1.33;;;11.00;80.20;;;;;;5058865;28;20048;-70
2022/04/15 01:41:58;;;;;;;2.05;0.95;;;10.90;80.00;;;;;;5061906;28;20537;-71
2022/04/15 01:44:25;;;;;;;2.40;1.02;;;10.90;80.10;;;;;;5062908;28;20045;-69
2022/04/15 01:46:51;;;;;;;2.70;1.13;;;10.90;80.10;;;;;;5059490;28;20505;-70
2022/04/15 01:49:18;;;;;;;2.47;1.10;;;10.90;80.10;;;;;;5060498;28;20040;-68
2022/04/15 01:51:45;;;;;;;3.95;1.23;;;10.80;80.00;;;;;;5060753;28;20051;-70
2022/04/15 01:54:12;;;;;;;2.08;1.00;;;10.80;80.10;;;;;;5061165;28;20049;-70
2022/04/15 01:56:41;;;;;;;4.95;1.10;;;10.80;80.10;;;;;;5057409;28;20055;-69
2022/04/15 01:59:09;;;;;;;2.80;1.20;;;10.80;80.00;;;;;;5061464;28;20052;-70
2022/04/15 02:01:36;;;;;;;2.10;1.02;;;10.70;80.00;;;;;;5057326;28;20045;-70
2022/04/15 02:04:04;;;;;;;4.05;1.30;;;10.60;80.00;;;;;;5059073;28;20106;-69
2022/04/15 02:06:32;;;;;;;4.35;1.55;;;10.60;80.10;;;;;;5059638;28;20044;-70
2022/04/15 02:08:59;;;;;;;2.20;0.95;;;10.60;80.10;;;;;;5064867;28;20060;-69
2022/04/15 02:11:26;;;;;;;4.75;1.25;;;10.60;80.00;;;;;;5057985;28;20055;-69
2022/04/15 02:13:53;;;;;;;3.72;1.45;;;10.60;80.10;;;;;;5057646;28;20041;-69
2022/04/15 02:16:21;;;;;;;3.78;1.55;;;10.70;80.20;;;;;;5059678;28;20048;-69
2022/04/15 02:18:48;;;;;;;2.70;1.30;;;10.60;80.30;;;;;;5060279;28;20511;-69
2022/04/15 02:21:15;;;;;;;4.65;1.95;;;10.70;80.40;;;;;;5059001;28;20040;-71
2022/04/15 02:23:42;;;;;;;4.18;1.73;;;10.60;80.50;;;;;;5062865;28;20177;-72
2022/04/15 02:26:09;;;;;;;3.50;1.83;;;10.70;80.60;;;;;;5060431;28;20040;-70
2022/04/15 02:28:36;;;;;;;3.75;1.90;;;10.60;80.70;;;;;;5057061;28;20152;-70
2022/04/15 02:31:03;;;;;;;3.67;1.70;;;10.60;80.70;;;;;;5057048;28;20553;-69
2022/04/15 02:33:31;;;;;;;3.58;1.25;;;10.60;80.70;;;;;;5059707;28;20045;-70
2022/04/15 02:35:58;;;;;;;5.72;1.52;;;10.60;80.90;;;;;;5056046;28;20033;-70
2022/04/15 02:38:25;;;;;;;3.38;1.30;;;10.60;80.90;;;;;;5058077;28;20040;-70
2022/04/15 02:40:52;;;;;;;3.88;1.40;;;10.60;80.90;;;;;;5062259;28;20422;-72
2022/04/15 02:43:20;;;;;;;4.13;1.60;;;10.60;80.90;;;;;;5060690;28;20063;-69
2022/04/15 02:45:48;;;;;;;3.25;1.30;;;10.60;81.10;;;;;;5060228;28;20068;-69
2022/04/15 02:48:15;;;;;;;3.97;1.38;;;10.60;81.30;;;;;;5056683;28;20048;-69
2022/04/15 02:50:43;;;;;;;4.40;1.63;;;10.60;81.40;;;;;;5053114;28;20044;-69
2022/04/15 02:53:10;;;;;;;6.68;1.50;;;10.60;81.60;;;;;;5056163;28;20047;-69
2022/04/15 02:55:38;;;;;;;6.22;1.55;;;10.60;81.80;;;;;;5055760;28;20039;-70
2022/04/15 02:58:05;;;;;;;4.78;1.65;;;10.60;81.80;;;;;;5058205;28;20486;-69
2022/04/15 03:00:33;;;;;;;5.13;2.22;;;10.60;81.80;;;;;;5052533;28;20127;-69
2022/04/15 03:03:00;;;;;;;3.97;1.70;;;10.60;81.90;;;;;;5059944;28;20036;-69
2022/04/15 03:05:27;;;;;;;6.55;2.17;;;10.60;82.10;;;;;;5056897;28;20036;-70
2022/04/15 03:07:55;;;;;;;4.53;1.90;;;10.60;82.20;;;;;;5061293;28;20055;-70
2022/04/15 03:10:22;;;;;;;5.57;2.55;;;10.60;82.30;;;;;;5058329;28;20128;-71
2022/04/15 03:12:50;;;;;;;5.60;1.92;;;10.60;82.30;;;;;;5062021;28;20043;-69
2022/04/15 03:15:18;;;;;;;9.10;2.30;;;10.60;82.50;;;;;;5058981;28;20063;-69
2022/04/15 03:17:44;;;;;;;6.68;2.13;;;10.70;82.60;;;;;;5060526;28;20056;-69
2022/04/15 03:20:13;;;;;;;5.45;2.30;;;10.60;82.70;;;;;;5059645;28;20129;-70
2022/04/15 03:22:42;;;;;;;4.70;1.95;;;10.60;82.80;;;;;;5060077;28;20047;-68
2022/04/15 03:25:12;;;;;;;6.07;2.47;;;10.60;83.00;;;;;;5059678;28;20086;-70
2022/04/15 03:27:39;;;;;;;;;;;10.60;83.00;;;;;;5041114;28;20045;-69
2022/04/15 03:30:07;;;;;;;4.68;2.15;;;10.60;82.70;;;;;;5057567;28;19927;-70
2022/04/15 03:32:34;;;;;;;5.50;2.13;;;10.60;82.30;;;;;;5059710;28;20040;-69
2022/04/15 03:35:01;;;;;;;4.03;1.92;;;10.50;82.10;;;;;;5057706;28;20052;-70
2022/04/15 03:37:28;;;;;;;3.85;1.75;;;10.50;81.90;;;;;;5051761;28;20358;-70
2022/04/15 03:39:55;;;;;;;4.78;2.00;;;10.50;82.00;;;;;;5062053;28;20045;-69
2022/04/15 03:42:23;;;;;;;5.90;2.05;;;10.50;82.10;;;;;;5060549;28;20044;-70
2022/04/15 03:44:50;;;;;;;4.55;2.05;;;10.50;82.10;;;;;;5058678;28;20041;-70
2022/04/15 03:47:17;;;;;;;6.75;3.03;;;10.50;82.20;;;;;;5061001;28;20044;-69
2022/04/15 03:49:45;;;;;;;8.30;2.55;;;10.50;82.30;;;;;;5058752;28;20679;-68
2022/04/15 03:52:12;;;;;;;7.30;2.47;;;10.50;82.30;;;;;;5058231;28;20071;-70
2022/04/15 03:54:40;;;;;;;13.30;2.80;;;10.50;82.40;;;;;;5055186;28;20051;-70
2022/04/15 03:57:07;;;;;;;7.60;3.00;;;10.50;82.50;;;;;;5057003;28;20048;-70
2022/04/15 03:59:35;;;;;;;8.15;2.60;;;10.50;82.70;;;;;;5060321;28;20123;-70
2022/04/15 04:02:03;;;;;;;7.53;2.85;;;10.40;82.70;;;;;;5055085;28;20541;-68
2022/04/15 04:04:30;;;;;;;6.03;2.50;;;10.50;82.80;;;;;;5056970;28;22045;-70
2022/04/15 04:06:56;;;;;;;4.85;2.17;;;10.50;82.80;;;;;;5056753;28;20040;-69
2022/04/15 04:09:24;;;;;;;5.53;2.58;;;10.50;82.90;;;;;;5055031;28;20056;-68
2022/04/15 04:11:51;;;;;;;7.85;3.60;;;10.50;83.00;;;;;;5060704;28;20508;-68
2022/04/15 04:14:18;;;;;;;6.97;2.90;;;10.40;83.20;;;;;;5059002;28;20508;-69
2022/04/15 04:16:47;;;;;;;8.27;3.47;;;10.40;83.50;;;;;;5063983;28;20052;-69
2022/04/15 04:19:14;;;;;;;8.10;3.38;;;10.40;83.40;;;;;;5065983;28;20059;-68
2022/04/15 04:21:40;;;;;;;7.47;2.90;;;10.40;83.60;;;;;;5061349;28;20052;-70
2022/04/15 04:24:07;;;;;;;11.13;3.45;;;10.40;83.70;;;;;;5066819;28;20036;-69
2022/04/15 04:26:34;;;;;;;6.72;2.58;;;10.40;83.80;;;;;;5068973;28;20059;-70
2022/04/15 04:29:01;;;;;;;7.95;3.10;;;10.40;83.90;;;;;;5065560;28;20044;-69
2022/04/15 04:31:28;;;;;;;7.40;3.08;;;10.40;83.90;;;;;;5066685;28;20112;-69
2022/04/15 04:33:57;;;;;;;7.60;2.70;;;10.40;83.80;;;;;;5067577;28;20055;-71
2022/04/15 04:36:24;;;;;;;14.27;2.92;;;10.40;83.70;;;;;;5066403;28;20125;-71
2022/04/15 04:38:51;;;;;;;7.85;2.63;;;10.40;83.70;;;;;;5067754;28;20076;-69
2022/04/15 04:41:18;;;;;;;6.03;2.40;;;10.40;83.60;;;;;;5065176;28;20047;-69
2022/04/15 04:43:45;;;;;;;9.65;3.08;;;10.40;83.80;;;;;;5068575;28;20040;-70
2022/04/15 04:46:12;;;;;;;7.68;3.35;;;10.40;83.80;;;;;;5069113;28;20048;-69
2022/04/15 04:48:39;;;;;;;6.45;2.58;;;10.40;83.70;;;;;;5042104;28;20406;-70
2022/04/15 04:51:08;;;;;;;7.97;2.83;;;10.40;83.90;;;;;;5065806;28;20192;-69
2022/04/15 04:53:35;;;;;;;7.72;3.40;;;10.40;83.90;;;;;;5066271;28;20120;-68
2022/04/15 04:56:02;;;;;;;6.28;2.80;;;10.40;83.90;;;;;;5065129;28;20045;-69
2022/04/15 04:58:29;;;;;;;6.15;3.20;;;10.40;83.80;;;;;;5068844;28;20091;-69
2022/04/15 05:00:56;;;;;;;8.32;3.30;;;10.30;83.80;;;;;;5065663;28;20083;-70
2022/04/15 05:03:23;;;;;;;8.60;3.70;;;10.30;83.70;;;;;;5067160;28;20040;-70
2022/04/15 05:05:50;;;;;;;6.25;3.10;;;10.30;83.70;;;;;;5065546;28;20909;-69
2022/04/15 05:08:18;;;;;;;7.90;3.70;;;10.30;83.80;;;;;;5064471;28;20051;-69
2022/04/15 05:10:45;;;;;;;7.95;2.90;;;10.30;83.80;;;;;;5071680;28;20452;-69
2022/04/15 05:13:12;;;;;;;7.47;3.72;;;10.30;83.90;;;;;;5069026;28;20127;-70
2022/04/15 05:15:39;;;;;;;5.97;3.08;;;10.30;83.80;;;;;;5071710;28;20509;-69
2022/04/15 05:18:06;;;;;;;6.45;3.70;;;10.20;83.80;;;;;;5069393;28;20061;-70
2022/04/15 05:20:34;;;;;;;7.18;3.38;;;10.20;83.80;;;;;;5068780;28;20084;-69
2022/04/15 05:23:01;;;;;;;7.10;3.03;;;10.30;83.60;;;;;;5065270;28;20115;-69
2022/04/15 05:25:30;;;;;;;7.18;3.28;;;10.30;83.60;;;;;;5062338;28;20455;-69
2022/04/15 05:27:58;;;;;;;7.25;3.22;;;10.20;83.70;;;;;;5059121;28;20482;-69
2022/04/15 05:30:25;;;;;;;6.60;2.97;;;10.30;83.70;;;;;;5063353;28;20044;-69
2022/04/15 05:32:52;;;;;;;7.28;3.72;;;10.30;83.80;;;;;;5049682;28;20052;-69
2022/04/15 05:35:19;;;;;;;8.35;3.47;;;10.30;83.80;;;;;;5063517;28;20048;-70
2022/04/15 05:37:46;;;;;;;6.35;2.95;;;10.30;83.80;;;;;;5060354;28;20278;-71
2022/04/15 05:40:13;;;;;;;7.20;3.17;;;10.30;83.80;;;;;;5063775;28;20060;-70
2022/04/15 05:42:42;;;;;;;5.65;2.90;;;10.30;83.80;;;;;;5067322;28;20048;-70
2022/04/15 05:45:09;;;;;;;8.25;3.35;;;10.30;83.80;;;;;;5064834;28;20040;-71
2022/04/15 05:47:38;;;;;;;8.43;3.25;;;10.30;83.80;;;;;;5066152;28;20055;-69
2022/04/15 05:50:06;;;;;;;6.28;2.92;;;10.40;83.60;;;;;;5070456;28;20166;-70
2022/04/15 05:52:34;;;;;;;5.65;2.70;;;10.40;83.70;;;;;;5067399;28;20045;-68
2022/04/15 05:55:01;;;;;;;4.55;2.60;;;10.40;83.70;;;;;;5066035;28;20120;-69
2022/04/15 05:57:28;;;;;;;6.03;2.78;;;10.40;83.70;;;;;;5069028;28;20036;-70
2022/04/15 05:59:57;;;;;;;5.07;2.53;;;10.40;83.80;;;;;;5061406;28;20040;-69
2022/04/15 06:02:24;;;;;;;6.43;2.65;;;10.40;83.80;;;;;;5057338;28;20033;-68
2022/04/15 06:04:51;;;;;;;5.70;2.55;;;10.40;83.80;;;;;;5064321;28;20135;-69
2022/04/15 06:07:18;;;;;;;5.25;2.55;;;10.40;83.80;;;;;;5061599;28;20044;-69
2022/04/15 06:09:46;;;;;;;7.75;3.50;;;10.50;83.90;;;;;;5062751;28;20131;-71
2022/04/15 06:12:13;;;;;;;7.38;3.25;;;10.50;83.70;;;;;;5061494;28;20037;-69
2022/04/15 06:14:40;;;;;;;6.25;3.25;;;10.50;83.90;;;;;;5059817;28;20049;-68
2022/04/15 06:17:09;;;;;;;6.90;2.95;;;10.50;83.90;;;;;;5059762;28;20052;-69
2022/04/15 06:19:36;;;;;;;6.80;2.67;;;10.60;83.80;;;;;;5063543;28;20413;-68
2022/04/15 06:22:04;;;;;;;6.25;2.65;;;10.60;83.90;;;;;;5060519;28;20456;-68
2022/04/15 06:24:31;;;;;;;6.55;3.00;;;10.60;83.80;;;;;;5065813;28;20459;-70
2022/04/15 06:26:58;;;;;;;6.65;3.25;;;10.60;83.80;;;;;;5068153;28;20044;-69
2022/04/15 06:29:25;;;;;;;5.63;2.95;;;10.60;83.90;;;;;;5061863;28;20049;-70
2022/04/15 06:31:52;;;;;;;7.03;3.58;;;10.70;83.90;;;;;;5063798;28;20134;-69
2022/04/15 06:34:21;;;;;;;5.47;2.58;;;10.70;83.80;;;;;;5061719;28;20045;-68
2022/04/15 06:36:48;;;;;;;7.13;3.05;;;10.70;83.80;;;;;;5060328;28;20562;-70
2022/04/15 06:39:15;;;;;;;5.53;2.88;;;10.70;83.80;;;;;;5062482;28;20072;-69
2022/04/15 06:41:44;;;;;;;5.97;2.80;;;10.70;83.70;;;;;;5062529;28;20167;-69
2022/04/15 06:44:11;;;;;;;7.97;3.22;;;10.80;83.80;;;;;;5061827;28;20044;-69
2022/04/15 06:46:38;;;;;;;6.30;3.05;;;10.80;83.70;;;;;;5060768;28;20068;-69
2022/04/15 06:49:05;;;;;;;6.50;3.40;;;10.90;83.70;;;;;;5063793;28;20198;-69
2022/04/15 06:51:33;;;;;;;8.35;3.83;;;10.90;83.80;;;;;;5042212;28;20149;-68
2022/04/15 06:54:00;;;;;;;7.65;3.50;;;10.90;83.70;;;;;;5042593;28;20559;-70
2022/04/15 06:56:28;;;;;;;7.57;3.83;;;11.00;83.80;;;;;;5062143;28;20064;-69
2022/04/15 06:58:55;;;;;;;8.90;3.58;;;10.90;83.80;;;;;;5060285;28;20055;-70
2022/04/15 07:01:23;;;;;;;9.73;4.00;;;10.90;84.10;;;;;;5056955;28;20047;-69
2022/04/15 07:03:50;;;;;;;9.05;4.20;;;11.00;84.10;;;;;;5059713;28;20041;-70
2022/04/15 07:06:17;;;;;;;9.15;4.53;;;11.00;84.10;;;;;;5063041;28;20127;-69
2022/04/15 07:08:46;;;;;;;10.57;4.25;;;11.00;84.00;;;;;;5061098;28;20138;-70
2022/04/15 07:11:16;;;;;;;7.82;3.97;;;11.00;84.00;;;;;;5058839;28;20033;-69
2022/04/15 07:13:43;;;;;;;;;;;11.00;84.00;;;;;;5058156;28;20739;-69
2022/04/15 07:16:10;;;;;;;8.43;3.10;;;11.10;84.00;;;;;;5063360;28;19920;-69
2022/04/15 07:18:37;;;;;;;7.50;4.28;;;11.20;83.90;;;;;;5059864;28;20052;-70
2022/04/15 07:21:05;;;;;;;9.70;3.80;;;11.20;83.90;;;;;;5061454;28;20043;-69
2022/04/15 07:23:32;;;;;;;7.13;4.30;;;11.40;83.80;;;;;;5059765;28;20612;-69
2022/04/15 07:26:01;;;;;;;8.52;4.13;;;11.40;83.70;;;;;;5061417;28;20067;-69
2022/04/15 07:28:28;;;;;;;10.00;4.38;;;11.50;83.70;;;;;;5058115;28;20471;-69
2022/04/15 07:30:55;;;;;;;9.55;3.97;;;11.60;83.60;;;;;;5061937;28;20515;-69
2022/04/15 07:33:22;;;;;;;9.30;4.75;;;11.70;83.50;;;;;;5059420;28;20051;-70
2022/04/15 07:35:48;;;;;;;8.38;4.78;;;11.80;83.50;;;;;;5062520;28;20555;-69
2022/04/15 07:38:15;;;;;;;7.30;3.90;;;11.80;83.50;;;;;;5061137;28;20052;-69
2022/04/15 07:40:42;;;;;;;7.60;3.58;;;12.00;83.40;;;;;;5064536;28;20150;-68
2022/04/15 07:43:11;;;;;;;6.45;3.40;;;12.10;83.10;;;;;;5067069;28;20040;-70
2022/04/15 07:45:38;;;;;;;6.47;3.30;;;12.30;82.90;;;;;;5068036;28;20048;-69
2022/04/15 07:48:06;;;;;;;7.10;3.70;;;12.40;82.80;;;;;;5059059;28;20694;-68
2022/04/15 07:50:33;;;;;;;5.80;3.20;;;12.60;82.50;;;;;;5059306;28;20052;-68
2022/04/15 07:53:01;;;;;;;6.97;3.45;;;12.80;82.30;;;;;;5058493;28;20044;-68
2022/04/15 07:55:28;;;;;;;8.80;3.53;;;12.90;82.20;;;;;;5054017;28;20123;-68
2022/04/15 07:57:56;;;;;;;7.32;3.30;;;13.10;82.30;;;;;;5056090;28;20136;-68
2022/04/15 08:00:25;;;;;;;6.82;3.60;;;13.30;82.00;;;;;;5056232;28;20044;-69
2022/04/15 08:02:52;;;;;;;5.93;3.08;;;13.50;81.80;;;;;;5061007;28;20461;-69
2022/04/15 08:05:19;;;;;;;7.30;3.13;;;13.60;81.70;;;;;;5061575;28;20044;-69
2022/04/15 08:07:46;;;;;;;6.90;3.45;;;13.70;81.40;;;;;;5055590;28;20123;-68
2022/04/15 08:10:13;;;;;;;6.93;3.70;;;13.90;81.00;;;;;;5064606;28;20055;-68
2022/04/15 08:12:40;;;;;;;6.20;3.58;;;13.90;80.70;;;;;;5065460;28;20056;-68
2022/04/15 08:15:07;;;;;;;6.45;2.88;;;14.10;80.30;;;;;;5063812;28;20052;-68
2022/04/15 08:17:36;;;;;;;8.88;3.33;;;14.20;80.30;;;;;;5063939;28;20533;-68
2022/04/15 08:20:04;;;;;;;6.53;3.20;;;14.40;79.90;;;;;;5064526;28;20493;-68
2022/04/15 08:22:34;;;;;;;5.28;2.78;;;14.60;80.10;;;;;;5065188;28;20036;-69
2022/04/15 08:25:01;;;;;;;7.18;3.55;;;14.70;79.80;;;;;;5068688;28;20076;-68
2022/04/15 08:27:29;;;;;;;6.07;2.55;;;14.80;79.70;;;;;;5061897;28;20127;-68
2022/04/15 08:29:55;;;;;;;6.30;2.40;;;15.00;79.70;;;;;;5055086;28;20033;-67
2022/04/15 08:32:23;;;;;;;7.88;3.08;;;15.10;78.70;;;;;;5059861;28;20059;-69
2022/04/15 08:34:51;;;;;;;5.35;1.80;;;15.20;78.80;;;;;;5059673;28;20124;-68
2022/04/15 08:37:18;;;;;;;5.55;2.40;;;15.40;74.70;;;;;;5060747;28;20045;-68
2022/04/15 08:39:45;;;;;;;3.80;1.70;;;15.60;77.10;;;;;;5060016;28;20287;-68
2022/04/15 08:42:12;;;;;;;3.72;1.50;;;15.60;75.10;;;;;;5058944;28;20119;-67
2022/04/15 08:44:40;;;;;;;4.53;2.08;;;15.80;73.90;;;;;;5058630;28;20044;-68
2022/04/15 08:47:09;;;;;;;3.85;1.90;;;16.00;73.80;;;;;;5058567;28;20497;-68
2022/04/15 08:49:37;;;;;;;3.33;1.60;;;16.10;71.50;;;;;;5063041;28;20128;-68
2022/04/15 08:52:06;;;;;;;3.88;1.65;;;16.20;71.30;;;;;;5063391;28;20051;-68
2022/04/15 08:54:35;;;;;;;3.07;1.40;;;16.30;72.20;;;;;;5066731;28;20055;-67
2022/04/15 08:57:02;;;;;;;4.70;1.73;;;16.40;69.90;;;;;;5063574;28;20048;-67
2022/04/15 08:59:29;;;;;;;2.90;1.27;;;16.60;69.90;;;;;;5058823;28;20048;-68
2022/04/15 09:01:56;;;;;;;4.25;1.60;;;16.50;71.60;;;;;;5060477;28;20122;-68
2022/04/15 09:04:24;;;;;;;3.65;1.60;;;16.50;70.30;;;;;;5058404;28;20044;-67
2022/04/15 09:06:56;;;;;;;3.15;1.38;;;16.40;69.60;;;;;;5057354;28;20060;-69
2022/04/15 09:09:29;;;;;;;3.00;1.30;;;16.40;68.90;;;;;;5056151;28;20086;-69
2022/04/15 09:11:58;;;;;;;2.22;1.02;;;16.30;69.20;;;;;;5060606;28;20140;-66
2022/04/15 09:14:26;;;;;;;4.10;0.93;;;16.30;66.90;;;;;;5059483;28;20064;-68
2022/04/15 09:16:53;;;;;;;2.58;1.00;;;16.20;66.40;;;;;;5062699;28;20064;-68
2022/04/15 09:19:22;;;;;;;3.65;1.02;;;16.30;65.40;;;;;;5059701;28;20052;-69
2022/04/15 09:21:53;;;;;;;2.60;0.70;;;16.40;65.90;;;;;;5065977;28;20052;-69
2022/04/15 09:24:28;;;;;;;4.72;1.10;;;16.50;65.00;;;;;;5066639;28;20076;-68
2022/04/15 09:26:55;;;;;;;2.58;0.90;;;16.60;62.70;;;;;;5061034;28;20115;-68
2022/04/15 09:29:25;;;;;;;1.73;0.90;;;16.70;62.50;;;;;;5064608;28;20702;-69
2022/04/15 09:31:55;;;;;;;5.28;1.35;;;16.80;62.70;;;;;;5058696;28;20044;-69
2022/04/15 09:34:22;;;;;;;2.58;0.98;;;16.80;63.90;;;;;;5057485;28;20045;-68
2022/04/15 09:36:50;;;;;;;2.42;0.85;;;16.90;62.30;;;;;;5058545;28;20033;-70
2022/04/15 09:39:17;;;;;;;2.08;0.95;;;16.90;61.40;;;;;;5058738;28;20058;-68
2022/04/15 09:41:54;;;;;;;2.55;1.00;;;16.90;61.50;;;;;;5056306;28;20048;-70
2022/04/15 09:44:22;;;;;;;2.58;0.98;;;16.90;61.40;;;;;;5058599;28;20045;-69
2022/04/15 09:46:52;;;;;;;2.80;1.00;;;16.70;60.00;;;;;;5058426;28;20108;-69
2022/04/15 09:49:19;;;;;;;2.65;0.90;;;16.70;59.50;;;;;;5058590;28;20048;-68
2022/04/15 09:51:51;;;;;;;2.17;0.70;;;16.60;59.40;;;;;;5059764;28;20040;-68
2022/04/15 09:54:23;;;;;;;2.92;1.10;;;16.80;59.70;;;;;;5058566;28;20048;-68
2022/04/15 09:56:53;;;;;;;2.78;0.90;;;17.10;58.90;;;;;;5063198;28;20040;-69
2022/04/15 09:59:23;;;;;;;3.45;1.15;;;17.10;58.80;;;;;;5061289;28;20111;-69
2022/04/15 10:01:54;;;;;;;1.92;1.00;;;17.10;58.90;;;;;;5058890;28;20072;-69
2022/04/15 10:04:23;;;;;;;5.40;1.00;;;17.10;59.10;;;;;;5063873;28;20123;-68
2022/04/15 10:06:51;;;;;;;2.67;0.90;;;17.00;58.90;;;;;;5062053;28;20502;-67
2022/04/15 10:09:19;;;;;;;2.58;0.93;;;17.10;59.20;;;;;;5064113;28;20497;-67
2022/04/15 10:11:47;;;;;;;3.50;1.02;;;17.20;58.90;;;;;;5060411;28;20052;-69
2022/04/15 10:14:17;;;;;;;2.90;0.75;;;17.20;58.50;;;;;;5063370;28;20045;-68
2022/04/15 10:16:44;;;;;;;2.72;0.80;;;17.30;58.70;;;;;;5063792;28;20476;-67
2022/04/15 10:19:12;;;;;;;2.55;0.80;;;17.40;58.90;;;;;;5065554;28;20072;-69
2022/04/15 10:21:42;;;;;;;2.88;0.85;;;17.40;59.70;;;;;;5068692;28;20462;-70
2022/04/15 10:24:09;;;;;;;3.28;0.90;;;17.40;58.10;;;;;;5070508;28;20127;-70
2022/04/15 10:26:40;;;;;;;0.98;0.63;;;17.40;57.10;;;;;;5067438;28;20582;-68
2022/04/15 10:29:09;;;;;;;2.08;0.80;;;17.40;57.50;;;;;;5062203;28;20135;-68
2022/04/15 10:31:43;;;;;;;2.17;0.70;;;17.40;58.80;;;;;;5065974;28;20055;-67
2022/04/15 10:34:12;;;;;;;2.55;0.60;;;17.40;58.30;;;;;;5063655;28;20120;-67
2022/04/15 10:36:43;;;;;;;1.58;0.80;;;17.30;57.30;;;;;;5061936;28;20044;-68
2022/04/15 10:39:15;;;;;;;2.65;0.65;;;17.20;57.30;;;;;;5062247;28;20146;-69
2022/04/15 10:42:01;;;;;;;2.05;0.88;;;17.20;57.60;;;;;;5061307;28;20095;-69
2022/04/15 10:44:31;;;;;;;2.60;0.63;;;17.20;56.90;;;;;;5059234;28;20048;-69
2022/04/15 10:47:04;;;;;;;1.50;0.52;;;17.20;56.00;;;;;;5061786;28;20041;-69
2022/04/15 10:49:34;;;;;;;2.83;0.75;;;17.20;56.90;;;;;;5059388;28;20036;-67
2022/04/15 10:52:01;;;;;;;;;;;17.30;58.30;;;;;;5061935;28;20041;-68
2022/04/15 10:54:45;;;;;;;2.58;0.88;;;17.40;57.80;;;;;;5060414;28;19920;-70
2022/04/15 10:57:15;;;;;;;1.38;0.50;;;17.50;57.20;;;;;;5057483;28;20056;-70
2022/04/15 11:02:42;;;;;;;0.93;0.55;;;17.60;56.80;;;;;;5060270;28;20070;-70
2022/04/15 11:05:11;;;;;;;1.98;0.68;;;17.50;56.30;;;;;;5060405;28;20049;-69
2022/04/15 11:07:44;;;;;;;1.70;0.63;;;17.50;54.90;;;;;;5054982;28;20045;-69
2022/04/15 11:10:40;;;;;;;1.70;0.60;;;17.50;54.70;;;;;;5060005;28;20045;-69
2022/04/15 11:13:08;;;;;;;1.15;0.60;;;17.40;53.90;;;;;;5063219;28;20114;-69
2022/04/15 11:15:58;;;;;;;2.13;0.50;;;17.50;55.10;;;;;;5065851;28;20049;-69
2022/04/15 11:18:47;;;;;;;1.25;0.55;;;17.40;55.00;;;;;;5066303;28;20041;-68
2022/04/15 11:21:19;;;;;;;2.30;0.70;;;17.50;55.30;;;;;;5068736;28;20064;-69
2022/04/15 11:23:48;;;;;;;1.33;0.60;;;17.50;55.70;;;;;;5065788;28;20044;-70
2022/04/15 11:26:16;;;;;;;2.03;0.73;;;17.50;55.00;;;;;;5062074;28;20053;-69
2022/04/15 11:28:45;;;;;;;1.25;0.60;;;17.50;54.40;;;;;;5060453;28;20130;-69
2022/04/15 11:31:23;;;;;;;1.13;0.70;;;17.50;54.90;;;;;;5062304;28;20066;-69
2022/04/15 11:33:52;;;;;;;2.25;1.08;;;17.40;54.50;;;;;;5061569;28;21197;-69
2022/04/15 11:36:20;;;;;;;1.30;0.50;;;17.40;54.90;;;;;;5061877;28;20060;-69
2022/04/15 11:38:49;;;;;;;2.25;0.70;;;17.50;55.40;;;;;;5061941;28;20135;-70
2022/04/15 11:41:19;;;;;;;1.42;0.68;;;17.40;55.00;;;;;;5056596;28;20055;-70
2022/04/15 11:43:55;;;;;;;1.77;0.68;;;17.50;55.00;;;;;;5062167;28;20037;-69
2022/04/15 11:46:22;;;;;;;1.73;0.60;;;17.40;55.10;;;;;;5066118;28;20523;-69
2022/04/15 11:48:50;;;;;;;1.20;0.63;;;17.50;55.00;;;;;;5066209;28;20040;-70
2022/04/15 11:51:22;;;;;;;1.45;0.60;;;17.50;54.60;;;;;;5068167;28;20277;-69
2022/04/15 11:53:49;;;;;;;1.88;0.40;;;17.60;55.10;;;;;;5066287;28;20046;-68
2022/04/15 11:56:16;;;;;;;0.85;0.47;;;17.60;55.30;;;;;;5064930;28;20032;-68
2022/04/15 11:58:44;;;;;;;1.95;0.70;;;17.60;54.70;;;;;;5061897;28;20102;-69
2022/04/15 12:01:11;;;;;;;2.45;0.93;;;17.60;54.60;;;;;;5057538;28;20043;-69
2022/04/15 12:03:43;;;;;;;0.98;0.50;;;17.60;54.40;;;;;;5060679;28;20033;-68
2022/04/15 12:06:11;;;;;;;1.38;0.63;;;17.60;54.50;;;;;;5057607;28;20597;-67
2022/04/15 12:08:38;;;;;;;2.65;0.68;;;17.60;54.80;;;;;;5059739;28;20049;-69
2022/04/15 12:11:05;;;;;;;2.55;0.90;;;17.70;54.80;;;;;;5063234;28;20049;-68
2022/04/15 12:13:35;;;;;;;1.55;0.60;;;17.60;54.40;;;;;;5060423;28;20048;-69
2022/04/15 12:16:02;;;;;;;2.05;0.80;;;17.70;54.40;;;;;;5056708;28;20059;-67
2022/04/15 12:18:29;;;;;;;2.28;0.73;;;17.60;54.90;;;;;;5054833;28;20048;-68
2022/04/15 12:20:57;;;;;;;3.45;0.70;;;17.70;55.10;;;;;;5060110;28;20188;-67
2022/04/15 12:23:26;;;;;;;2.00;0.65;;;17.60;55.30;;;;;;5064927;28;20049;-67
2022/04/15 12:26:12;;;;;;;2.17;0.68;;;17.70;55.70;;;;;;5064043;28;20101;-69
2022/04/15 12:31:27;;;;;;;4.75;0.90;;;17.70;56.30;;;;;;5064339;28;20662;-68
2022/04/15 12:33:54;;;;;;;2.90;0.68;;;17.80;54.30;;;;;;5060863;28;20033;-69
2022/04/15 12:36:21;;;;;;;1.88;1.05;;;17.70;54.00;;;;;;5040902;28;20048;-69
2022/04/15 12:39:00;;;;;;;1.13;0.75;;;17.70;52.80;;;;;;5057771;28;20457;-69
2022/04/15 12:41:38;;;;;;;1.83;0.70;;;17.70;52.90;;;;;;5057002;28;20044;-68
2022/04/15 12:44:16;;;;;;;1.25;0.43;;;17.70;53.20;;;;;;5053864;28;20069;-70
2022/04/15 12:46:45;;;;;;;3.75;0.93;;;17.70;52.90;;;;;;5064922;28;20052;-69
2022/04/15 12:49:29;;;;;;;1.45;0.47;;;17.70;52.90;;;;;;5066226;28;20080;-68
2022/04/15 12:52:08;;;;;;;1.40;0.50;;;17.70;53.00;;;;;;5067668;28;20078;-69
2022/04/15 12:54:56;;;;;;;1.15;0.68;;;17.70;53.20;;;;;;5068794;28;20052;-70
2022/04/15 12:57:23;;;;;;;1.27;0.65;;;17.70;53.30;;;;;;5065926;28;20083;-69
2022/04/15 12:59:51;;;;;;;1.10;0.50;;;17.70;53.60;;;;;;5066096;28;20127;-69